Terminal Aerodrome Forecast
Issued by NWS

Home | Current Version | Previous Version | Graphics & Text | Print | Product List | Glossary On
Versions: 1 2 3 4 5 6 7 8 9 10 11 12
000
FTUS45 KGGW 240520
TAFSDY
TAF
KSDY 240520Z 2406/2506 27007KT P6SM BKN150
     FM241100 24005KT P6SM BKN090
     FM241800 24008KT P6SM SCT120
     FM250300 30005KT P6SM SCT150
      AMD LTD TO CLD VIS AND WIND=

USA.gov is the U.S. government's official web portal to all federal, state and local government web resources and services.